Time;durP1;ratioP1;P1;durP2;ratioP2;P2;SDS_P1;SDS_P2;PMS_P1;PMS_P2;Temp;Humidity;BMP_temperature;BMP_pressure;BME280_temperature;BME280_humidity;BME280_pressure;Samples;Min_cycle;Max_cycle;Signal;HPM_P1;HPM_P2
2022/03/02 00:02:15;;;;;;;18.80;11.15;;;;;;;;;;5012193;28;20522;-71
2022/03/02 00:04:40;;;;;;;17.80;10.52;;;;;;;;;;5011965;28;20037;-72
2022/03/02 00:07:06;;;;;;;19.58;9.43;;;;;;;;;;5010965;28;20065;-72
2022/03/02 00:09:31;;;;;;;17.20;9.25;;;;;;;;;;5012074;28;20017;-72
2022/03/02 00:11:57;;;;;;;17.38;8.73;;;;;;;;;;5012072;28;20033;-72
2022/03/02 00:14:22;;;;;;;18.15;9.10;;;;;;;;;;5012298;28;20343;-71
2022/03/02 00:16:48;;;;;;;15.63;9.07;;;;;;;;;;5011843;28;20026;-71
2022/03/02 00:19:13;;;;;;;16.98;8.45;;;;;;;;;;5011826;28;20022;-72
2022/03/02 00:21:39;;;;;;;15.65;8.85;;;;;;;;;;5011505;28;20399;-72
2022/03/02 00:24:04;;;;;;;17.67;9.23;;;;;;;;;;5012051;28;20391;-72
2022/03/02 00:26:33;;;;;;;18.20;9.52;;;;;;;;;;5011865;28;20053;-72
2022/03/02 00:28:59;;;;;;;16.58;8.98;;;;;;;;;;5011715;28;20391;-72
2022/03/02 00:31:24;;;;;;;17.98;9.63;;;;;;;;;;5011492;28;20036;-72
2022/03/02 00:33:50;;;;;;;20.83;9.82;;;;;;;;;;5011875;28;20394;-72
2022/03/02 00:36:16;;;;;;;19.73;10.23;;;;;;;;;;5011666;28;20026;-72
2022/03/02 00:38:42;;;;;;;17.00;10.35;;;;;;;;;;5011218;28;20026;-72
2022/03/02 00:41:07;;;;;;;16.80;8.98;;;;;;;;;;5011541;28;20120;-73
2022/03/02 00:43:33;;;;;;;19.98;9.75;;;;;;;;;;5009891;28;20121;-72
2022/03/02 00:45:58;;;;;;;19.35;9.63;;;;;;;;;;5011492;28;20030;-72
2022/03/02 00:48:23;;;;;;;15.60;8.30;;;;;;;;;;5011516;28;20033;-72
2022/03/02 00:50:49;;;;;;;18.83;9.13;;;;;;;;;;5011444;28;20507;-72
2022/03/02 00:53:15;;;;;;;17.52;10.20;;;;;;;;;;5011434;28;20491;-72
2022/03/02 00:55:40;;;;;;;16.27;9.30;;;;;;;;;;5010695;28;20026;-72
2022/03/02 00:58:06;;;;;;;16.83;9.35;;;;;;;;;;5011170;28;20036;-72
2022/03/02 01:00:32;;;;;;;14.38;7.38;;;;;;;;;;5010909;28;20108;-72
2022/03/02 01:02:57;;;;;;;16.60;9.10;;;;;;;;;;5011456;28;20070;-72
2022/03/02 01:05:23;;;;;;;13.00;7.68;;;;;;;;;;5011396;28;20498;-72
2022/03/02 01:07:49;;;;;;;15.82;8.65;;;;;;;;;;5011423;28;20034;-72
2022/03/02 01:10:15;;;;;;;16.25;7.30;;;;;;;;;;5010445;28;20120;-72
2022/03/02 01:12:42;;;;;;;16.95;7.97;;;;;;;;;;4991495;28;20373;-71
2022/03/02 01:15:09;;;;;;;17.63;9.68;;;;;;;;;;4991264;28;20037;-72
2022/03/02 01:17:34;;;;;;;18.52;9.05;;;;;;;;;;4991492;28;20435;-72
2022/03/02 01:19:59;;;;;;;15.52;8.75;;;;;;;;;;4991129;28;20029;-72
2022/03/02 01:22:26;;;;;;;17.23;8.80;;;;;;;;;;4991146;28;20033;-72
2022/03/02 01:24:51;;;;;;;15.52;8.50;;;;;;;;;;4991316;28;20030;-71
2022/03/02 01:27:17;;;;;;;14.18;7.90;;;;;;;;;;5001733;28;20418;-72
2022/03/02 01:29:42;;;;;;;16.13;8.60;;;;;;;;;;5010516;28;20356;-71
2022/03/02 01:32:09;;;;;;;16.92;8.02;;;;;;;;;;5010398;28;20037;-72
2022/03/02 01:34:35;;;;;;;15.07;8.55;;;;;;;;;;5010666;28;20340;-71
2022/03/02 01:37:00;;;;;;;16.10;8.85;;;;;;;;;;5010581;28;20547;-72
2022/03/02 01:39:26;;;;;;;15.48;8.82;;;;;;;;;;5010378;28;20121;-72
2022/03/02 01:41:52;;;;;;;15.10;7.97;;;;;;;;;;5010484;28;20467;-72
2022/03/02 01:44:18;;;;;;;16.85;8.73;;;;;;;;;;5010487;28;20076;-72
2022/03/02 01:46:43;;;;;;;17.98;8.88;;;;;;;;;;5010504;28;20484;-72
2022/03/02 01:49:09;;;;;;;15.40;7.90;;;;;;;;;;5010091;28;20058;-71
2022/03/02 01:51:34;;;;;;;16.85;8.90;;;;;;;;;;5010360;28;20025;-72
2022/03/02 01:54:00;;;;;;;17.20;8.25;;;;;;;;;;5010362;28;20045;-72
2022/03/02 01:56:26;;;;;;;13.70;8.07;;;;;;;;;;5010220;28;20041;-72
2022/03/02 01:58:52;;;;;;;18.15;8.73;;;;;;;;;;5010143;28;20041;-72
2022/03/02 02:01:17;;;;;;;16.70;8.43;;;;;;;;;;5009849;28;20018;-72
2022/03/02 02:03:43;;;;;;;15.63;7.93;;;;;;;;;;5010209;28;20025;-71
2022/03/02 02:06:09;;;;;;;17.42;9.35;;;;;;;;;;5010482;28;20379;-72
2022/03/02 02:08:34;;;;;;;16.83;8.77;;;;;;;;;;5010150;28;20060;-72
2022/03/02 02:11:01;;;;;;;19.83;10.25;;;;;;;;;;5009937;28;20403;-72
2022/03/02 02:13:27;;;;;;;17.88;8.77;;;;;;;;;;5010294;28;20030;-72
2022/03/02 02:15:54;;;;;;;14.93;8.45;;;;;;;;;;5009767;28;20166;-72
2022/03/02 02:18:19;;;;;;;17.60;8.73;;;;;;;;;;5010284;28;20057;-71
2022/03/02 02:20:45;;;;;;;20.10;9.35;;;;;;;;;;5010090;28;20123;-72
2022/03/02 02:23:11;;;;;;;16.83;8.63;;;;;;;;;;5009965;28;20442;-71
2022/03/02 02:25:37;;;;;;;18.73;8.52;;;;;;;;;;5009878;28;20038;-71
2022/03/02 02:28:03;;;;;;;16.08;8.68;;;;;;;;;;5009069;28;20028;-72
2022/03/02 02:30:29;;;;;;;16.80;8.88;;;;;;;;;;5008638;28;20018;-71
2022/03/02 02:32:55;;;;;;;16.15;8.82;;;;;;;;;;5009490;28;20038;-72
2022/03/02 02:35:20;;;;;;;18.88;9.10;;;;;;;;;;5008695;28;20042;-72
2022/03/02 02:37:46;;;;;;;17.95;8.70;;;;;;;;;;5008146;28;20483;-71
2022/03/02 02:40:14;;;;;;;16.58;9.30;;;;;;;;;;5009673;28;20057;-72
2022/03/02 02:42:44;;;;;;;19.23;9.13;;;;;;;;;;5037704;23;20144;-70
2022/03/02 02:45:10;;;;;;;22.42;9.52;;;;;;;;;;5029691;28;20036;-70
2022/03/02 02:47:35;;;;;;;20.38;9.80;;;;;;;;;;5029001;28;20033;-70
2022/03/02 02:50:13;;;;;;;15.75;8.43;;;;;;;;;;5029301;28;20437;-69
2022/03/02 02:52:39;;;;;;;15.32;8.20;;;;;;;;;;5029542;28;20029;-70
2022/03/02 02:55:09;;;;;;;19.10;8.88;;;;;;;;;;5029948;28;20025;-69
2022/03/02 02:57:34;;;;;;;16.75;8.18;;;;;;;;;;5029669;28;20026;-70
2022/03/02 02:59:59;;;;;;;15.13;8.45;;;;;;;;;;5029167;28;20056;-70
2022/03/02 03:02:25;;;;;;;16.90;8.48;;;;;;;;;;5028992;28;20498;-69
2022/03/02 03:04:50;;;;;;;15.18;8.10;;;;;;;;;;5029240;28;20116;-69
2022/03/02 03:07:15;;;;;;;17.23;8.40;;;;;;;;;;5029128;28;20412;-69
2022/03/02 03:09:41;;;;;;;18.17;8.30;;;;;;;;;;5028963;28;20029;-71
2022/03/02 03:12:06;;;;;;;19.10;8.70;;;;;;;;;;5029226;28;20025;-70
2022/03/02 03:14:31;;;;;;;19.25;8.38;;;;;;;;;;5029383;28;20536;-71
2022/03/02 03:16:57;;;;;;;15.40;8.25;;;;;;;;;;5029549;28;20041;-69
2022/03/02 03:19:22;;;;;;;15.55;7.05;;;;;;;;;;5028504;28;20025;-70
2022/03/02 03:21:48;;;;;;;17.08;7.53;;;;;;;;;;5029177;28;20132;-71
2022/03/02 03:24:13;;;;;;;14.32;8.15;;;;;;;;;;5031077;28;20104;-69
2022/03/02 03:26:39;;;;;;;13.13;7.38;;;;;;;;;;5032915;28;20025;-70
2022/03/02 03:29:04;;;;;;;12.45;6.65;;;;;;;;;;5032287;28;20108;-69
2022/03/02 03:31:29;;;;;;;12.10;6.95;;;;;;;;;;5032802;28;20024;-71
2022/03/02 03:33:55;;;;;;;16.73;7.72;;;;;;;;;;5032601;28;20099;-71
2022/03/02 03:36:20;;;;;;;12.35;7.38;;;;;;;;;;5032477;28;20021;-70
2022/03/02 03:38:45;;;;;;;16.08;8.07;;;;;;;;;;5031975;28;20044;-70
2022/03/02 03:41:11;;;;;;;16.50;8.32;;;;;;;;;;5032232;28;20029;-70
2022/03/02 03:43:36;;;;;;;17.52;8.73;;;;;;;;;;5031929;28;20111;-70
2022/03/02 03:46:02;;;;;;;16.48;8.73;;;;;;;;;;5032183;28;20029;-70
2022/03/02 03:48:27;;;;;;;21.17;9.80;;;;;;;;;;5031601;28;20471;-71
2022/03/02 03:50:52;;;;;;;16.90;8.70;;;;;;;;;;5032460;28;20033;-70
2022/03/02 03:53:18;;;;;;;16.10;8.57;;;;;;;;;;5031777;28;20040;-71
2022/03/02 03:55:43;;;;;;;17.20;8.45;;;;;;;;;;5032452;28;20033;-70
2022/03/02 03:58:09;;;;;;;17.67;8.93;;;;;;;;;;5031730;28;20033;-70
2022/03/02 04:00:34;;;;;;;17.27;8.43;;;;;;;;;;5031625;28;20514;-70
2022/03/02 04:03:00;;;;;;;13.98;8.25;;;;;;;;;;5032107;28;20026;-71
2022/03/02 04:05:25;;;;;;;18.02;8.82;;;;;;;;;;5032419;28;20017;-70
2022/03/02 04:07:50;;;;;;;16.70;8.38;;;;;;;;;;5032105;28;20040;-71
2022/03/02 04:10:16;;;;;;;16.35;8.02;;;;;;;;;;5031651;28;20041;-70
2022/03/02 04:12:43;;;;;;;15.60;8.38;;;;;;;;;;5032195;28;20436;-70
2022/03/02 04:15:09;;;;;;;17.17;8.60;;;;;;;;;;5032050;28;20051;-70
2022/03/02 04:17:34;;;;;;;18.00;8.55;;;;;;;;;;5031764;28;20068;-71
2022/03/02 04:20:00;;;;;;;14.52;8.10;;;;;;;;;;5031928;28;20156;-70
2022/03/02 04:22:25;;;;;;;19.92;8.57;;;;;;;;;;5032258;28;20468;-70
2022/03/02 04:24:51;;;;;;;14.75;8.27;;;;;;;;;;5032087;28;20048;-71
2022/03/02 04:27:17;;;;;;;13.48;7.65;;;;;;;;;;5031523;28;20549;-71
2022/03/02 04:29:42;;;;;;;18.42;8.82;;;;;;;;;;5031463;28;20044;-70
2022/03/02 04:32:08;;;;;;;18.20;9.20;;;;;;;;;;5031608;28;20017;-70
2022/03/02 04:34:33;;;;;;;16.40;8.07;;;;;;;;;;5031114;28;20021;-71
2022/03/02 04:36:59;;;;;;;17.13;8.63;;;;;;;;;;5032028;28;20373;-70
2022/03/02 04:39:24;;;;;;;16.90;9.65;;;;;;;;;;5030654;28;20056;-71
2022/03/02 04:41:50;;;;;;;14.38;8.57;;;;;;;;;;5031273;28;20021;-71
2022/03/02 04:44:15;;;;;;;16.55;8.50;;;;;;;;;;5030921;28;20057;-72
2022/03/02 04:46:40;;;;;;;22.63;9.32;;;;;;;;;;5031236;28;20367;-71
2022/03/02 04:49:13;;;;;;;17.08;9.15;;;;;;;;;;5030812;28;20139;-70
2022/03/02 04:51:39;;;;;;;18.20;9.48;;;;;;;;;;5030771;28;20087;-71
2022/03/02 04:54:06;;;;;;;23.33;8.30;;;;;;;;;;5031332;28;20476;-70
2022/03/02 04:56:32;;;;;;;15.40;8.52;;;;;;;;;;5031293;28;20036;-72
2022/03/02 04:58:57;;;;;;;15.48;9.23;;;;;;;;;;5030355;28;20391;-71
2022/03/02 05:01:22;;;;;;;13.88;8.57;;;;;;;;;;5031110;28;20030;-71
2022/03/02 05:03:48;;;;;;;17.88;8.48;;;;;;;;;;5030845;28;20068;-71
2022/03/02 05:06:13;;;;;;;15.52;8.30;;;;;;;;;;5030897;28;20333;-71
2022/03/02 05:08:38;;;;;;;17.13;8.88;;;;;;;;;;5030241;28;20457;-71
2022/03/02 05:11:04;;;;;;;16.60;8.23;;;;;;;;;;5030929;28;20028;-71
2022/03/02 05:13:29;;;;;;;15.32;8.27;;;;;;;;;;5031045;28;20114;-71
2022/03/02 05:15:55;;;;;;;13.95;7.93;;;;;;;;;;5030800;28;20052;-71
2022/03/02 05:18:20;;;;;;;14.98;7.65;;;;;;;;;;5030378;28;20525;-71
2022/03/02 05:20:45;;;;;;;16.50;8.30;;;;;;;;;;5030635;28;20111;-71
2022/03/02 05:23:11;;;;;;;15.23;7.80;;;;;;;;;;5030603;28;20052;-71
2022/03/02 05:25:37;;;;;;;16.85;8.55;;;;;;;;;;5030688;28;20025;-71
2022/03/02 05:28:02;;;;;;;14.88;8.60;;;;;;;;;;5030341;28;20079;-71
2022/03/02 05:30:27;;;;;;;16.80;8.50;;;;;;;;;;5030573;28;20064;-71
2022/03/02 05:32:53;;;;;;;18.70;9.82;;;;;;;;;;5030227;28;20036;-72
2022/03/02 05:35:18;;;;;;;16.08;9.18;;;;;;;;;;5030402;28;20501;-71
2022/03/02 05:37:44;;;;;;;16.48;8.80;;;;;;;;;;5029984;28;20539;-71
2022/03/02 05:40:12;;;;;;;16.77;8.43;;;;;;;;;;5030065;28;20029;-72
2022/03/02 05:42:37;;;;;;;15.38;9.20;;;;;;;;;;5030374;28;20504;-71
2022/03/02 05:45:03;;;;;;;17.30;9.07;;;;;;;;;;5030235;28;20542;-71
2022/03/02 05:47:29;;;;;;;15.80;8.75;;;;;;;;;;5029440;28;20026;-71
2022/03/02 05:49:54;;;;;;;15.48;8.10;;;;;;;;;;5029393;28;20025;-71
2022/03/02 05:52:20;;;;;;;16.38;8.77;;;;;;;;;;5029849;28;20048;-71
2022/03/02 05:54:46;;;;;;;18.20;7.95;;;;;;;;;;5030318;28;20047;-71
2022/03/02 05:57:11;;;;;;;17.20;8.98;;;;;;;;;;5029639;28;20531;-72
2022/03/02 05:59:36;;;;;;;18.17;8.85;;;;;;;;;;5029762;28;20029;-72
2022/03/02 06:02:02;;;;;;;15.32;8.02;;;;;;;;;;5030071;28;20068;-73
2022/03/02 06:04:27;;;;;;;17.05;8.30;;;;;;;;;;5029883;28;20037;-71
2022/03/02 06:06:52;;;;;;;16.40;8.00;;;;;;;;;;5029375;28;20108;-71
2022/03/02 06:09:18;;;;;;;15.25;8.35;;;;;;;;;;5029902;28;20029;-71
2022/03/02 06:11:44;;;;;;;19.10;8.05;;;;;;;;;;5029556;28;20087;-71
2022/03/02 06:14:10;;;;;;;16.90;8.55;;;;;;;;;;5030106;28;20025;-71
2022/03/02 06:16:36;;;;;;;16.13;7.90;;;;;;;;;;5029726;28;20108;-71
2022/03/02 06:19:02;;;;;;;18.63;8.70;;;;;;;;;;5027971;28;20116;-71
2022/03/02 06:21:29;;;;;;;18.38;9.00;;;;;;;;;;5027966;28;20430;-71
2022/03/02 06:23:55;;;;;;;21.55;10.00;;;;;;;;;;5030036;28;20021;-72
2022/03/02 06:26:22;;;;;;;19.80;10.18;;;;;;;;;;5029569;28;20390;-71
2022/03/02 06:28:49;;;;;;;21.70;10.73;;;;;;;;;;5029353;28;20083;-71
2022/03/02 06:31:15;;;;;;;19.65;10.57;;;;;;;;;;5029010;28;20071;-71
2022/03/02 06:33:40;;;;;;;21.02;9.77;;;;;;;;;;5020183;28;20037;-72
2022/03/02 06:36:06;;;;;;;19.85;9.85;;;;;;;;;;5027525;28;20025;-71
2022/03/02 06:38:31;;;;;;;20.88;9.55;;;;;;;;;;5028983;28;20040;-71
2022/03/02 06:41:09;;;;;;;14.50;8.27;;;;;;;;;;5029534;28;20386;-71
2022/03/02 06:43:39;;;;;;;16.58;9.05;;;;;;;;;;5029109;28;20474;-71
2022/03/02 06:46:10;;;;;;;20.75;9.60;;;;;;;;;;5030750;28;20036;-72
2022/03/02 06:48:55;;;;;;;19.58;8.90;;;;;;;;;;5040167;28;20112;-71
2022/03/02 06:51:23;;;;;;;20.17;10.27;;;;;;;;;;5018005;28;20018;-71
2022/03/02 06:53:50;;;;;;;17.83;9.00;;;;;;;;;;5028091;28;20033;-71
2022/03/02 06:56:18;;;;;;;17.80;9.15;;;;;;;;;;5029391;28;20475;-71
2022/03/02 06:58:51;;;;;;;17.00;8.43;;;;;;;;;;5031689;28;20044;-71
2022/03/02 07:01:22;;;;;;;16.17;8.88;;;;;;;;;;5032844;28;20083;-73
2022/03/02 07:03:47;;;;;;;16.23;9.55;;;;;;;;;;5033167;28;20438;-71
2022/03/02 07:06:14;;;;;;;15.18;7.95;;;;;;;;;;5031385;28;20033;-70
2022/03/02 07:08:43;;;;;;;21.23;9.65;;;;;;;;;;5029559;28;20039;-71
2022/03/02 07:11:08;;;;;;;16.73;9.10;;;;;;;;;;5032816;28;20375;-71
2022/03/02 07:13:34;;;;;;;22.15;10.43;;;;;;;;;;5033477;28;20096;-70
2022/03/02 07:16:00;;;;;;;20.63;8.93;;;;;;;;;;5032247;28;20754;-70
2022/03/02 07:18:26;;;;;;;18.75;9.20;;;;;;;;;;5032869;28;20025;-70
2022/03/02 07:20:58;;;;;;;16.15;8.60;;;;;;;;;;5031874;28;20594;-70
2022/03/02 07:23:28;;;;;;;18.48;8.73;;;;;;;;;;5013077;28;20109;-70
2022/03/02 07:25:59;;;;;;;14.25;7.78;;;;;;;;;;5027697;28;20033;-69
2022/03/02 07:28:26;;;;;;;16.13;8.57;;;;;;;;;;5032643;28;20077;-70
2022/03/02 07:30:53;;;;;;;15.73;8.25;;;;;;;;;;5032600;28;20017;-69
2022/03/02 07:33:21;;;;;;;14.35;7.90;;;;;;;;;;5032690;28;20521;-72
2022/03/02 07:35:55;;;;;;;16.85;8.05;;;;;;;;;;5030880;28;20025;-71
2022/03/02 07:38:21;;;;;;;13.07;7.63;;;;;;;;;;5032373;28;20288;-70
2022/03/02 07:40:48;;;;;;;13.95;8.23;;;;;;;;;;5022056;28;20045;-70
2022/03/02 07:43:14;;;;;;;16.13;7.75;;;;;;;;;;5031381;28;20315;-69
2022/03/02 07:45:40;;;;;;;18.15;8.13;;;;;;;;;;5032037;28;20080;-70
2022/03/02 07:48:05;;;;;;;16.52;8.10;;;;;;;;;;5031851;28;20037;-70
2022/03/02 07:50:30;;;;;;;15.05;7.97;;;;;;;;;;5030754;28;20368;-70
2022/03/02 07:52:59;;;;;;;15.52;8.68;;;;;;;;;;5032123;28;20379;-71
2022/03/02 07:55:24;;;;;;;17.05;8.65;;;;;;;;;;5032258;28;20461;-71
2022/03/02 07:57:55;;;;;;;16.40;9.13;;;;;;;;;;5031751;28;20068;-70
2022/03/02 08:00:21;;;;;;;17.25;8.90;;;;;;;;;;5012367;28;20170;-70
2022/03/02 08:02:48;;;;;;;16.63;8.45;;;;;;;;;;5026159;28;20124;-69
2022/03/02 08:05:14;;;;;;;17.27;9.38;;;;;;;;;;5032087;28;20083;-69
2022/03/02 08:07:39;;;;;;;17.42;9.27;;;;;;;;;;5027310;28;20025;-69
2022/03/02 08:10:06;;;;;;;17.67;9.65;;;;;;;;;;5028962;28;20429;-70
2022/03/02 08:12:31;;;;;;;15.85;8.63;;;;;;;;;;5030304;28;20033;-69
2022/03/02 08:14:57;;;;;;;15.70;8.60;;;;;;;;;;5030486;28;20088;-70
2022/03/02 08:17:23;;;;;;;20.15;10.90;;;;;;;;;;5052477;28;20032;-70
2022/03/02 08:19:48;;;;;;;23.65;14.80;;;;;;;;;;5037860;28;20264;-71
2022/03/02 08:22:19;;;;;;;18.52;11.35;;;;;;;;;;5031335;28;20479;-70
2022/03/02 08:24:58;;;;;;;16.15;10.00;;;;;;;;;;5031563;28;20036;-70
2022/03/02 08:27:24;;;;;;;17.48;9.48;;;;;;;;;;5031628;28;20029;-70
2022/03/02 08:29:56;;;;;;;15.82;9.50;;;;;;;;;;5029627;28;20360;-70
2022/03/02 08:32:22;;;;;;;14.30;8.68;;;;;;;;;;5030911;28;20407;-70
2022/03/02 08:34:49;;;;;;;16.48;8.27;;;;;;;;;;5031871;28;20029;-70
2022/03/02 08:37:17;;;;;;;17.58;9.15;;;;;;;;;;5030312;28;20029;-71
2022/03/02 08:39:43;;;;;;;14.52;8.00;;;;;;;;;;5030915;28;20406;-69
2022/03/02 08:42:09;;;;;;;18.20;8.68;;;;;;;;;;5054233;23;20026;-72
2022/03/02 08:44:35;;;;;;;17.15;9.35;;;;;;;;;;5030104;28;20099;-72
2022/03/02 08:47:00;;;;;;;16.50;8.35;;;;;;;;;;5030382;28;20029;-72
2022/03/02 08:49:25;;;;;;;16.40;8.60;;;;;;;;;;5031371;28;20025;-72
2022/03/02 08:51:51;;;;;;;13.40;8.43;;;;;;;;;;5030032;28;20017;-72
2022/03/02 08:54:19;;;;;;;15.10;8.40;;;;;;;;;;5031401;28;20029;-71
2022/03/02 08:56:46;;;;;;;15.50;8.90;;;;;;;;;;5031142;28;20104;-71
2022/03/02 08:59:18;;;;;;;14.75;8.15;;;;;;;;;;5030976;28;20025;-71
2022/03/02 09:01:49;;;;;;;16.42;9.13;;;;;;;;;;5030977;28;20056;-71
2022/03/02 09:04:16;;;;;;;17.55;9.45;;;;;;;;;;5029180;28;20041;-71
2022/03/02 09:06:42;;;;;;;16.52;8.63;;;;;;;;;;5030961;28;20071;-71
2022/03/02 09:09:07;;;;;;;18.38;9.40;;;;;;;;;;5029235;28;20399;-72
2022/03/02 09:11:33;;;;;;;15.68;8.50;;;;;;;;;;5029468;28;20028;-71
2022/03/02 09:14:00;;;;;;;15.65;8.95;;;;;;;;;;5030787;28;20028;-71
2022/03/02 09:16:26;;;;;;;17.33;8.88;;;;;;;;;;5029129;28;20029;-71
2022/03/02 09:18:51;;;;;;;13.90;7.97;;;;;;;;;;5030354;28;20025;-72
2022/03/02 09:21:19;;;;;;;15.65;8.95;;;;;;;;;;5030307;28;20026;-72
2022/03/02 09:23:45;;;;;;;15.77;8.65;;;;;;;;;;5030575;28;20499;-71
2022/03/02 09:26:13;;;;;;;14.23;8.45;;;;;;;;;;5031115;28;20035;-72
2022/03/02 09:28:41;;;;;;;14.73;8.68;;;;;;;;;;5030153;28;20025;-72
2022/03/02 09:31:09;;;;;;;14.95;8.68;;;;;;;;;;5031202;28;20059;-72
2022/03/02 09:33:35;;;;;;;14.55;8.77;;;;;;;;;;5030403;28;20083;-71
2022/03/02 09:36:06;;;;;;;14.57;8.90;;;;;;;;;;5030343;28;20053;-71
2022/03/02 09:38:34;;;;;;;14.60;8.93;;;;;;;;;;5028809;28;20021;-72
2022/03/02 09:41:05;;;;;;;14.48;8.88;;;;;;;;;;5030551;28;20029;-72
2022/03/02 09:43:32;;;;;;;14.25;8.20;;;;;;;;;;5029950;28;20080;-72
2022/03/02 09:46:06;;;;;;;13.70;8.85;;;;;;;;;;5030010;28;20438;-72
2022/03/02 09:48:35;;;;;;;15.10;8.10;;;;;;;;;;5029436;28;20049;-72
2022/03/02 09:51:06;;;;;;;12.15;8.35;;;;;;;;;;5030377;28;20018;-72
2022/03/02 09:53:34;;;;;;;15.73;8.68;;;;;;;;;;5029267;28;20091;-72
2022/03/02 09:56:02;;;;;;;13.05;8.38;;;;;;;;;;5026824;28;20025;-72
2022/03/02 09:58:28;;;;;;;13.38;8.68;;;;;;;;;;5029761;28;20438;-71
2022/03/02 10:00:56;;;;;;;12.98;7.97;;;;;;;;;;5029710;28;20018;-71
2022/03/02 10:03:25;;;;;;;13.27;7.97;;;;;;;;;;5029511;28;20059;-71
2022/03/02 10:05:52;;;;;;;12.13;7.90;;;;;;;;;;5029875;28;20479;-71
2022/03/02 10:08:20;;;;;;;12.80;8.23;;;;;;;;;;5029284;28;20029;-71
2022/03/02 10:10:48;;;;;;;14.98;7.57;;;;;;;;;;5029814;28;20083;-71
2022/03/02 10:13:16;;;;;;;11.57;7.82;;;;;;;;;;5029843;28;20033;-71
2022/03/02 10:15:43;;;;;;;15.85;8.10;;;;;;;;;;5029997;28;20029;-71
2022/03/02 10:18:11;;;;;;;10.70;7.35;;;;;;;;;;5029386;28;20369;-71
2022/03/02 10:20:39;;;;;;;13.00;8.27;;;;;;;;;;5029674;28;20021;-72
2022/03/02 10:23:22;;;;;;;13.15;8.70;;;;;;;;;;5029453;28;20068;-72
2022/03/02 10:26:09;;;;;;;11.73;8.18;;;;;;;;;;5029744;28;20256;-72
2022/03/02 10:29:17;;;;;;;11.98;8.73;;;;;;;;;;5029364;28;20029;-72
2022/03/02 10:31:51;;;;;;;14.20;8.93;;;;;;;;;;5029350;28;20403;-71
2022/03/02 10:34:29;;;;;;;14.73;8.68;;;;;;;;;;5033201;28;20025;-72
2022/03/02 10:37:01;;;;;;;12.30;8.35;;;;;;;;;;5032036;28;20021;-72
2022/03/02 10:39:46;;;;;;;13.48;8.45;;;;;;;;;;5033338;28;20363;-72
2022/03/02 10:42:17;;;;;;;15.85;8.30;;;;;;;;;;5033327;28;20036;-72
2022/03/02 10:45:07;;;;;;;12.25;7.72;;;;;;;;;;5033530;28;20025;-71
2022/03/02 10:47:35;;;;;;;13.20;8.23;;;;;;;;;;5033267;28;20026;-71
2022/03/02 10:50:02;;;;;;;14.20;8.95;;;;;;;;;;5033028;28;20024;-72
2022/03/02 10:52:29;;;;;;;13.60;8.32;;;;;;;;;;5032889;28;20064;-72
2022/03/02 10:55:04;;;;;;;12.27;7.78;;;;;;;;;;5033341;28;20021;-71
2022/03/02 10:57:32;;;;;;;15.27;8.73;;;;;;;;;;5033357;28;20036;-72
2022/03/02 11:00:09;;;;;;;12.63;8.27;;;;;;;;;;5032864;28;20029;-71
2022/03/02 11:02:39;;;;;;;14.10;8.45;;;;;;;;;;5032850;28;20112;-71
2022/03/02 11:05:07;;;;;;;15.85;8.27;;;;;;;;;;5033767;28;20094;-72
2022/03/02 11:07:34;;;;;;;13.95;8.48;;;;;;;;;;5033729;28;20017;-71
2022/03/02 11:10:03;;;;;;;12.88;8.43;;;;;;;;;;5032783;28;20025;-71
2022/03/02 11:12:29;;;;;;;14.55;8.80;;;;;;;;;;5032811;28;20037;-72
2022/03/02 11:15:04;;;;;;;14.38;9.02;;;;;;;;;;5031758;28;20033;-71
2022/03/02 11:17:30;;;;;;;13.68;8.70;;;;;;;;;;5033037;28;20414;-72
2022/03/02 11:19:57;;;;;;;12.95;8.63;;;;;;;;;;5032389;28;20062;-72
2022/03/02 11:22:25;;;;;;;12.50;7.97;;;;;;;;;;5032497;28;20040;-71
2022/03/02 11:24:55;;;;;;;13.07;8.38;;;;;;;;;;5032237;28;20091;-71
2022/03/02 11:27:40;;;;;;;15.90;9.20;;;;;;;;;;5033231;28;20531;-72
2022/03/02 11:30:17;;;;;;;19.13;10.20;;;;;;;;;;5031862;28;20163;-71
2022/03/02 11:32:45;;;;;;;15.88;9.32;;;;;;;;;;5032502;28;20056;-71
2022/03/02 11:35:14;;;;;;;14.48;8.93;;;;;;;;;;5032125;28;20471;-71
2022/03/02 11:37:41;;;;;;;14.05;8.77;;;;;;;;;;5032114;28;20033;-71
2022/03/02 11:40:14;;;;;;;14.02;8.45;;;;;;;;;;5031233;28;20483;-71
2022/03/02 11:42:42;;;;;;;13.27;8.88;;;;;;;;;;5032295;28;20272;-71
2022/03/02 11:45:09;;;;;;;12.82;8.68;;;;;;;;;;5031243;28;20083;-71
2022/03/02 11:47:41;;;;;;;14.45;9.40;;;;;;;;;;5032621;28;20419;-69
2022/03/02 11:50:10;;;;;;;13.15;8.52;;;;;;;;;;5032328;28;20023;-69
2022/03/02 11:52:37;;;;;;;13.50;8.40;;;;;;;;;;5032454;28;20471;-68
2022/03/02 11:55:05;;;;;;;13.93;8.15;;;;;;;;;;5031770;28;20044;-68
2022/03/02 11:57:39;;;;;;;15.05;8.43;;;;;;;;;;5032284;28;20104;-68
2022/03/02 12:00:12;;;;;;;14.13;8.60;;;;;;;;;;5032049;28;20017;-69
2022/03/02 12:02:48;;;;;;;13.00;8.23;;;;;;;;;;5031856;28;20025;-69
2022/03/02 12:05:16;;;;;;;15.82;8.35;;;;;;;;;;5031771;28;20296;-68
2022/03/02 12:07:44;;;;;;;14.73;7.80;;;;;;;;;;5031822;28;20422;-68
2022/03/02 12:10:19;;;;;;;13.52;7.63;;;;;;;;;;5031336;28;20167;-69
2022/03/02 12:12:44;;;;;;;15.52;8.13;;;;;;;;;;5032029;28;20037;-67
2022/03/02 12:15:11;;;;;;;11.10;7.43;;;;;;;;;;5031505;28;20087;-70
2022/03/02 12:17:39;;;;;;;12.27;7.60;;;;;;;;;;5031524;28;20071;-72
2022/03/02 12:20:09;;;;;;;11.63;7.57;;;;;;;;;;5031490;28;20049;-72
2022/03/02 12:22:54;;;;;;;13.73;8.23;;;;;;;;;;5031801;28;20072;-71
2022/03/02 12:25:22;;;;;;;13.77;7.70;;;;;;;;;;5032005;28;20475;-72
2022/03/02 12:27:59;;;;;;;15.15;8.77;;;;;;;;;;5031350;28;20045;-72
2022/03/02 12:30:28;;;;;;;14.32;8.80;;;;;;;;;;5031193;28;20032;-72
2022/03/02 12:32:54;;;;;;;17.23;8.75;;;;;;;;;;5031619;28;20032;-70
2022/03/02 12:35:23;;;;;;;15.07;8.50;;;;;;;;;;5031449;28;20028;-71
2022/03/02 12:37:50;;;;;;;14.88;7.95;;;;;;;;;;5031447;28;20024;-72
2022/03/02 12:40:15;;;;;;;16.73;9.05;;;;;;;;;;5031244;28;20418;-72
2022/03/02 12:42:43;;;;;;;12.82;8.55;;;;;;;;;;5030854;28;20030;-71
2022/03/02 12:45:10;;;;;;;18.23;8.82;;;;;;;;;;5030892;28;20029;-72
2022/03/02 12:47:37;;;;;;;15.23;8.63;;;;;;;;;;5031199;28;20083;-71
2022/03/02 12:50:05;;;;;;;16.58;9.00;;;;;;;;;;5030989;28;20426;-71
2022/03/02 12:52:31;;;;;;;12.88;8.80;;;;;;;;;;5031247;28;20025;-71
2022/03/02 12:54:58;;;;;;;14.55;9.40;;;;;;;;;;5031119;28;20438;-71
2022/03/02 12:57:29;;;;;;;16.05;11.05;;;;;;;;;;5031025;28;20025;-71
2022/03/02 12:59:55;;;;;;;14.20;9.50;;;;;;;;;;5030871;28;20033;-70
2022/03/02 13:02:23;;;;;;;22.67;11.77;;;;;;;;;;5028697;28;20025;-70
2022/03/02 13:05:12;;;;;;;16.27;9.75;;;;;;;;;;5030448;28;20102;-70
2022/03/02 13:07:50;;;;;;;14.55;8.57;;;;;;;;;;5030230;28;20050;-70
2022/03/02 13:10:21;;;;;;;12.98;8.10;;;;;;;;;;5029899;28;20040;-70
2022/03/02 13:12:53;;;;;;;10.00;7.35;;;;;;;;;;5030596;28;20025;-71
2022/03/02 13:15:18;;;;;;;13.70;8.73;;;;;;;;;;5030625;28;20382;-70
2022/03/02 13:17:44;;;;;;;14.23;9.15;;;;;;;;;;5030887;28;20114;-70
2022/03/02 13:20:18;;;;;;;11.95;8.50;;;;;;;;;;5030185;28;20467;-70
2022/03/02 13:22:44;;;;;;;12.52;8.15;;;;;;;;;;5030507;28;20408;-70
2022/03/02 13:25:10;;;;;;;15.60;9.07;;;;;;;;;;5030578;28;20115;-70
2022/03/02 13:28:12;;;;;;;12.00;8.07;;;;;;;;;;5030861;28;20032;-71
2022/03/02 13:30:38;;;;;;;9.88;7.13;;;;;;;;;;5030301;28;20056;-71
2022/03/02 13:33:07;;;;;;;13.27;7.38;;;;;;;;;;5030113;28;20060;-71
2022/03/02 13:35:35;;;;;;;12.30;8.43;;;;;;;;;;5030377;28;20033;-70
2022/03/02 13:38:11;;;;;;;12.75;8.93;;;;;;;;;;5029923;28;20025;-70
2022/03/02 13:40:43;;;;;;;17.63;8.75;;;;;;;;;;5030083;28;20464;-70
2022/03/02 13:43:08;;;;;;;13.57;8.83;;;;;;;;;;5028750;28;20111;-70
2022/03/02 13:45:38;;;;;;;9.27;7.25;;;;;;;;;;5030462;28;20463;-71
2022/03/02 13:48:24;;;;;;;13.13;8.10;;;;;;;;;;5030092;28;20041;-70
2022/03/02 13:50:58;;;;;;;11.27;7.78;;;;;;;;;;5029832;28;20036;-70
2022/03/02 13:53:48;;;;;;;13.80;7.93;;;;;;;;;;5030040;28;20116;-71
2022/03/02 13:56:13;;;;;;;12.75;8.70;;;;;;;;;;5029947;28;20445;-71
2022/03/02 13:58:41;;;;;;;14.93;8.82;;;;;;;;;;5029935;28;20104;-70
2022/03/02 14:01:19;;;;;;;13.45;8.02;;;;;;;;;;5029810;28;20053;-71
2022/03/02 14:03:49;;;;;;;12.63;7.68;;;;;;;;;;5029714;28;20049;-72
2022/03/02 14:06:16;;;;;;;13.65;8.30;;;;;;;;;;5029176;28;20476;-69
2022/03/02 14:08:42;;;;;;;13.00;8.18;;;;;;;;;;5029040;28;20108;-70
2022/03/02 14:11:07;;;;;;;11.32;7.50;;;;;;;;;;5029649;28;20136;-69
2022/03/02 14:13:34;;;;;;;13.77;8.20;;;;;;;;;;5029662;28;20101;-69
2022/03/02 14:16:06;;;;;;;11.80;8.07;;;;;;;;;;5029708;28;20402;-70
2022/03/02 14:18:32;;;;;;;12.38;7.80;;;;;;;;;;5029516;28;20056;-70
2022/03/02 14:20:57;;;;;;;14.00;8.23;;;;;;;;;;5029577;28;20471;-69
2022/03/02 14:23:22;;;;;;;15.15;9.18;;;;;;;;;;5029435;28;20036;-70
2022/03/02 14:25:54;;;;;;;14.57;8.95;;;;;;;;;;5029543;28;20430;-70
2022/03/02 14:28:19;;;;;;;10.45;7.38;;;;;;;;;;5029509;28;20120;-69
2022/03/02 14:30:45;;;;;;;10.13;7.35;;;;;;;;;;5029352;28;20053;-69
2022/03/02 14:33:17;;;;;;;16.63;8.93;;;;;;;;;;5029320;28;20036;-70